UAE824 OMDB-EHAM
Flight info
| Callsign | UAE824 |
|---|---|
| Flight time | N/A |
| Altitude | 34000 |
| Route | RIDAP M557 TUMAK L602 TASMI/N0487F360 L602 GADSI M860 SEPTU DCT VUSEB M860 NINVA UM860 ODALI UL852 NEGEM DCT MAXOV DCT BADOR/N0475F380 DCT PITOK DCT MAKAL DCT LALUK DCT NORKU |
| Aircraft | B77W/H-SDE1E2E3FGHIJ2J3J4J5M1RWXY/LB1D1 |
Departure
| Time | 2026-04-24 21:45 |
|---|---|
| Airport | Dubai International Airport (OMDB) |
Arrival
| Time | N/A |
|---|---|
| Airport | Amsterdam Airport Schiphol (EHAM) |
| Time | Latitude | Longitude | Altitude | Speed | Heading |
|---|---|---|---|---|---|
| 2026-04-24 21:13 | 25.24930 | 55.36231 | 30 ft | 0 kts | 211° |
| 2026-04-24 21:32 | 25.24934 | 55.36233 | 26 ft | 2 kts | 212° |
| 2026-04-24 21:33 | 25.24947 | 55.36244 | 22 ft | 2 kts | 219° |
| 2026-04-24 21:33 | 25.24956 | 55.36251 | 52 ft | 2 kts | 224° |
| 2026-04-24 21:33 | 25.24970 | 55.36270 | 47 ft | 2 kts | 239° |
| 2026-04-24 21:33 | 25.24977 | 55.36286 | 25 ft | 2 kts | 258° |
| 2026-04-24 21:34 | 25.24979 | 55.36304 | 23 ft | 2 kts | 278° |
| 2026-04-24 21:34 | 25.24975 | 55.36322 | 24 ft | 2 kts | 294° |
| 2026-04-24 21:34 | 25.24969 | 55.36334 | 25 ft | 1 kts | 301° |
| 2026-04-24 21:34 | 25.24968 | 55.36336 | 25 ft | 0 kts | 302° |
| 2026-04-24 21:37 | 25.24977 | 55.36321 | 24 ft | 12 kts | 303° |
| 2026-04-24 21:37 | 25.25020 | 55.36247 | 30 ft | 19 kts | 301° |
| 2026-04-24 21:37 | 25.25077 | 55.36142 | 27 ft | 25 kts | 301° |
| 2026-04-24 21:38 | 25.25192 | 55.35931 | 21 ft | 34 kts | 302° |
| 2026-04-24 21:38 | 25.25313 | 55.35710 | 18 ft | 33 kts | 300° |
| 2026-04-24 21:38 | 25.25431 | 55.35503 | 17 ft | 31 kts | 301° |
| 2026-04-24 21:38 | 25.25539 | 55.35305 | 20 ft | 30 kts | 301° |
| 2026-04-24 21:39 | 25.25647 | 55.35143 | 26 ft | 13 kts | 351° |
| 2026-04-24 21:39 | 25.25731 | 55.35195 | 24 ft | 23 kts | 36° |
| 2026-04-24 21:39 | 25.25878 | 55.35291 | 22 ft | 23 kts | 31° |
| 2026-04-24 21:39 | 25.25990 | 55.35400 | 27 ft | 22 kts | 67° |
| 2026-04-24 21:40 | 25.25956 | 55.35590 | 28 ft | 31 kts | 121° |
| 2026-04-24 21:40 | 25.25844 | 55.35792 | 21 ft | 30 kts | 122° |
| 2026-04-24 21:40 | 25.25734 | 55.35987 | 27 ft | 30 kts | 121° |
| 2026-04-24 21:40 | 25.25625 | 55.36184 | 27 ft | 30 kts | 121° |
| 2026-04-24 21:41 | 25.25516 | 55.36380 | 26 ft | 30 kts | 121° |
| 2026-04-24 21:41 | 25.25408 | 55.36574 | 26 ft | 30 kts | 122° |
| 2026-04-24 21:41 | 25.25301 | 55.36770 | 29 ft | 30 kts | 121° |
| 2026-04-24 21:41 | 25.25193 | 55.36967 | 32 ft | 30 kts | 121° |
| 2026-04-24 21:42 | 25.25086 | 55.37153 | 39 ft | 26 kts | 122° |
| 2026-04-24 21:42 | 25.24994 | 55.37326 | 42 ft | 26 kts | 120° |
| 2026-04-24 21:42 | 25.24898 | 55.37497 | 43 ft | 26 kts | 121° |
| 2026-04-24 21:42 | 25.24802 | 55.37669 | 44 ft | 26 kts | 121° |
| 2026-04-24 21:43 | 25.24709 | 55.37839 | 44 ft | 26 kts | 121° |
| 2026-04-24 21:43 | 25.24619 | 55.37999 | 48 ft | 22 kts | 122° |
| 2026-04-24 21:43 | 25.24633 | 55.38071 | 48 ft | 8 kts | 11° |
| 2026-04-24 21:43 | 25.24689 | 55.38086 | 48 ft | 8 kts | 20° |
| 2026-04-24 21:44 | 25.24777 | 55.38083 | 47 ft | 11 kts | 310° |
| 2026-04-24 21:44 | 25.24803 | 55.38026 | 45 ft | 0 kts | 298° |
| 2026-04-24 21:44 | 25.24808 | 55.38015 | 45 ft | 15 kts | 298° |
| 2026-04-24 21:44 | 25.25027 | 55.37621 | 45 ft | 104 kts | 302° |
| 2026-04-24 21:45 | 25.25553 | 55.36677 | 34 ft | 182 kts | 301° |
| 2026-04-24 21:45 | 25.26302 | 55.35328 | 265 ft | 218 kts | 302° |
| 2026-04-24 21:45 | 25.27113 | 55.33884 | 923 ft | 229 kts | 303° |
| 2026-04-24 21:45 | 25.27982 | 55.32406 | 1789 ft | 230 kts | 304° |
| 2026-04-24 21:46 | 25.28886 | 55.30915 | 2440 ft | 236 kts | 305° |
| 2026-04-24 21:46 | 25.29792 | 55.29367 | 2967 ft | 248 kts | 295° |
| 2026-04-24 21:46 | 25.30189 | 55.27478 | 3371 ft | 259 kts | 278° |
| 2026-04-24 21:46 | 25.30421 | 55.25469 | 4040 ft | 265 kts | 278° |
| 2026-04-24 21:47 | 25.30671 | 55.23449 | 4816 ft | 266 kts | 278° |
| 2026-04-24 21:47 | 25.30840 | 55.22097 | 5354 ft | 268 kts | 278° |
| 2026-04-24 21:47 | 25.31182 | 55.19390 | 6374 ft | 270 kts | 278° |
| 2026-04-24 21:47 | 25.31445 | 55.17316 | 7096 ft | 273 kts | 278° |
| 2026-04-24 21:48 | 25.31622 | 55.15930 | 7574 ft | 275 kts | 278° |
| 2026-04-24 21:48 | 25.31981 | 55.13129 | 8526 ft | 279 kts | 277° |
| 2026-04-24 21:48 | 25.32163 | 55.11710 | 8990 ft | 281 kts | 277° |
| 2026-04-24 21:48 | 25.32531 | 55.08843 | 9941 ft | 284 kts | 277° |
| 2026-04-24 21:49 | 25.32718 | 55.07380 | 10389 ft | 286 kts | 277° |
| 2026-04-24 21:49 | 25.32998 | 55.05204 | 11067 ft | 289 kts | 277° |
| 2026-04-24 21:49 | 25.33282 | 55.02987 | 11776 ft | 292 kts | 277° |
| 2026-04-24 21:49 | 25.33569 | 55.00744 | 12488 ft | 296 kts | 277° |
| 2026-04-24 21:50 | 25.33856 | 54.98507 | 13211 ft | 299 kts | 277° |
| 2026-04-24 21:50 | 25.34246 | 54.95450 | 14139 ft | 305 kts | 277° |
| 2026-04-24 21:50 | 25.34445 | 54.93885 | 14461 ft | 313 kts | 277° |
| 2026-04-24 21:50 | 25.34613 | 54.92571 | 14709 ft | 320 kts | 277° |
| 2026-04-24 21:51 | 25.34976 | 54.90304 | 14880 ft | 339 kts | 283° |
| 2026-04-24 21:51 | 25.35652 | 54.87793 | 14882 ft | 342 kts | 287° |
| 2026-04-24 21:51 | 25.36395 | 54.85267 | 14874 ft | 345 kts | 287° |
| 2026-04-24 21:51 | 25.37133 | 54.82760 | 14911 ft | 345 kts | 287° |
| 2026-04-24 21:52 | 25.37867 | 54.80239 | 15293 ft | 339 kts | 287° |
| 2026-04-24 21:52 | 25.38581 | 54.77757 | 15737 ft | 343 kts | 286° |
| 2026-04-24 21:52 | 25.39312 | 54.75202 | 16183 ft | 347 kts | 286° |
| 2026-04-24 21:52 | 25.40037 | 54.72666 | 16633 ft | 348 kts | 286° |
| 2026-04-24 21:53 | 25.40762 | 54.70136 | 17075 ft | 348 kts | 287° |
| 2026-04-24 21:53 | 25.41506 | 54.67563 | 17537 ft | 349 kts | 287° |
| 2026-04-24 21:53 | 25.42240 | 54.65030 | 17996 ft | 349 kts | 287° |
| 2026-04-24 21:53 | 25.42985 | 54.62451 | 18419 ft | 350 kts | 287° |
| 2026-04-24 21:54 | 25.43726 | 54.59900 | 18821 ft | 351 kts | 287° |
| 2026-04-24 21:54 | 25.44488 | 54.57307 | 19231 ft | 353 kts | 287° |
| 2026-04-24 21:54 | 25.45248 | 54.54728 | 19655 ft | 355 kts | 287° |
| 2026-04-24 21:54 | 25.46013 | 54.52131 | 20080 ft | 358 kts | 287° |
| 2026-04-24 21:55 | 25.46793 | 54.49481 | 20519 ft | 361 kts | 287° |
| 2026-04-24 21:55 | 25.47565 | 54.46850 | 20956 ft | 363 kts | 287° |
| 2026-04-24 21:55 | 25.48352 | 54.44169 | 21406 ft | 366 kts | 287° |
| 2026-04-24 21:55 | 25.49133 | 54.41505 | 21857 ft | 369 kts | 287° |
| 2026-04-24 21:56 | 25.49925 | 54.38798 | 22310 ft | 371 kts | 287° |
| 2026-04-24 21:56 | 25.50723 | 54.36070 | 22799 ft | 374 kts | 287° |
| 2026-04-24 21:56 | 25.51527 | 54.33320 | 23264 ft | 376 kts | 287° |
| 2026-04-24 21:56 | 25.52332 | 54.30564 | 23689 ft | 378 kts | 287° |
| 2026-04-24 21:57 | 25.53144 | 54.27784 | 24091 ft | 380 kts | 287° |
| 2026-04-24 21:57 | 25.53959 | 54.24987 | 24494 ft | 382 kts | 287° |
| 2026-04-24 21:57 | 25.54781 | 54.22186 | 24905 ft | 384 kts | 287° |
| 2026-04-24 21:57 | 25.55615 | 54.19368 | 25320 ft | 386 kts | 287° |
| 2026-04-24 21:58 | 25.56456 | 54.16533 | 25749 ft | 388 kts | 287° |
| 2026-04-24 21:58 | 25.57298 | 54.13688 | 26174 ft | 390 kts | 287° |
| 2026-04-24 21:58 | 25.58143 | 54.10827 | 26605 ft | 392 kts | 287° |
| 2026-04-24 21:58 | 25.58991 | 54.07952 | 27052 ft | 394 kts | 287° |
| 2026-04-24 21:59 | 25.59839 | 54.05049 | 27513 ft | 396 kts | 286° |
| 2026-04-24 21:59 | 25.60673 | 54.02127 | 27957 ft | 399 kts | 286° |
| 2026-04-24 21:59 | 25.61504 | 53.99187 | 28425 ft | 402 kts | 286° |
| 2026-04-24 21:59 | 25.62330 | 53.96259 | 28900 ft | 405 kts | 286° |
| 2026-04-24 22:00 | 25.63182 | 53.93241 | 29382 ft | 408 kts | 286° |
| 2026-04-24 22:00 | 25.64023 | 53.90268 | 29861 ft | 410 kts | 286° |
| 2026-04-24 22:00 | 25.64877 | 53.87248 | 30296 ft | 412 kts | 285° |
| 2026-04-24 22:00 | 25.65734 | 53.84217 | 30724 ft | 413 kts | 285° |
| 2026-04-24 22:01 | 25.66596 | 53.81168 | 31152 ft | 414 kts | 285° |
| 2026-04-24 22:01 | 25.67456 | 53.78124 | 31587 ft | 415 kts | 285° |
| 2026-04-24 22:01 | 25.68318 | 53.75069 | 32029 ft | 415 kts | 285° |
| 2026-04-24 22:01 | 25.69182 | 53.72004 | 32465 ft | 414 kts | 285° |
| 2026-04-24 22:02 | 25.70039 | 53.68956 | 32914 ft | 413 kts | 285° |
| 2026-04-24 22:02 | 25.70893 | 53.65918 | 33375 ft | 412 kts | 285° |
| 2026-04-24 22:02 | 25.71742 | 53.62892 | 33835 ft | 410 kts | 285° |
| 2026-04-24 22:02 | 25.72575 | 53.59922 | 34244 ft | 408 kts | 285° |
| 2026-04-24 22:03 | 25.73414 | 53.56931 | 34646 ft | 405 kts | 285° |
| 2026-04-24 22:03 | 25.74248 | 53.53953 | 35071 ft | 402 kts | 285° |
| 2026-04-24 22:03 | 25.75077 | 53.50991 | 35490 ft | 399 kts | 285° |
| 2026-04-24 22:03 | 25.75902 | 53.48056 | 35882 ft | 397 kts | 285° |
| 2026-04-24 22:04 | 25.76735 | 53.45109 | 35848 ft | 405 kts | 285° |
| 2026-04-24 22:04 | 25.78444 | 53.39058 | 35893 ft | 417 kts | 285° |
| 2026-04-24 22:05 | 25.80205 | 53.32812 | 35894 ft | 429 kts | 285° |
| 2026-04-24 22:05 | 25.81996 | 53.26451 | 35893 ft | 440 kts | 285° |
| 2026-04-24 22:06 | 25.83837 | 53.19917 | 35887 ft | 447 kts | 286° |
| 2026-04-24 22:06 | 25.86216 | 53.13513 | 35886 ft | 449 kts | 291° |
| 2026-04-24 22:07 | 25.88824 | 53.07192 | 35874 ft | 448 kts | 291° |
| 2026-04-24 22:07 | 25.91394 | 53.00902 | 35876 ft | 446 kts | 291° |
| 2026-04-24 22:08 | 25.93931 | 52.94642 | 35879 ft | 444 kts | 291° |
| 2026-04-24 22:08 | 25.96442 | 52.88432 | 35881 ft | 442 kts | 291° |
| 2026-04-24 22:09 | 25.98963 | 52.82186 | 35888 ft | 442 kts | 291° |
| 2026-04-24 22:09 | 26.01486 | 52.75930 | 35889 ft | 444 kts | 291° |
| 2026-04-24 22:10 | 26.04157 | 52.69716 | 35889 ft | 446 kts | 294° |
| 2026-04-24 22:10 | 26.06993 | 52.63568 | 35888 ft | 447 kts | 294° |
| 2026-04-24 22:11 | 26.09790 | 52.57396 | 35883 ft | 447 kts | 293° |
| 2026-04-24 22:11 | 26.12553 | 52.51249 | 35885 ft | 446 kts | 293° |
| 2026-04-24 22:12 | 26.15351 | 52.45081 | 35886 ft | 446 kts | 293° |
| 2026-04-24 22:12 | 26.18144 | 52.38917 | 35892 ft | 445 kts | 293° |
| 2026-04-24 22:13 | 26.20925 | 52.32764 | 35894 ft | 445 kts | 293° |
| 2026-04-24 22:13 | 26.23676 | 52.26574 | 35891 ft | 444 kts | 292° |
| 2026-04-24 22:14 | 26.26328 | 52.20413 | 35892 ft | 443 kts | 292° |
| 2026-04-24 22:14 | 26.28997 | 52.14222 | 35896 ft | 443 kts | 292° |
| 2026-04-24 22:15 | 26.31673 | 52.08031 | 35897 ft | 443 kts | 292° |
| 2026-04-24 22:15 | 26.34326 | 52.01840 | 35897 ft | 442 kts | 292° |
| 2026-04-24 22:16 | 26.36966 | 51.95652 | 35902 ft | 442 kts | 291° |
| 2026-04-24 22:16 | 26.39223 | 51.89312 | 35911 ft | 439 kts | 287° |
| 2026-04-24 22:17 | 26.41328 | 51.82917 | 35902 ft | 439 kts | 287° |
| 2026-04-24 22:17 | 26.43485 | 51.76542 | 35903 ft | 439 kts | 288° |
| 2026-04-24 22:18 | 26.45641 | 51.70168 | 35907 ft | 439 kts | 287° |
| 2026-04-24 22:18 | 26.47786 | 51.63841 | 35909 ft | 439 kts | 288° |
| 2026-04-24 22:19 | 26.49920 | 51.57464 | 35907 ft | 438 kts | 287° |
| 2026-04-24 22:19 | 26.52035 | 51.51071 | 35912 ft | 438 kts | 287° |
| 2026-04-24 22:20 | 26.54144 | 51.44698 | 35910 ft | 437 kts | 287° |
| 2026-04-24 22:20 | 26.56250 | 51.38333 | 35913 ft | 437 kts | 287° |
| 2026-04-24 22:21 | 26.58353 | 51.31967 | 35915 ft | 436 kts | 287° |
| 2026-04-24 22:21 | 26.60440 | 51.25649 | 35913 ft | 436 kts | 287° |
| 2026-04-24 22:22 | 26.62540 | 51.19298 | 35921 ft | 435 kts | 287° |
| 2026-04-24 22:22 | 26.64638 | 51.12942 | 35921 ft | 435 kts | 287° |